sensor_id;sensor_type;location;lat;lon;timestamp;temperature;humidity
22633;DHT22;11483;55.828;37.488;2023-08-01T00:01:30;20.90;99.90
22633;DHT22;11483;55.828;37.488;2023-08-01T00:03:56;20.80;99.90
22633;DHT22;11483;55.828;37.488;2023-08-01T00:06:22;20.80;99.90
22633;DHT22;11483;55.828;37.488;2023-08-01T00:08:50;20.80;99.90
22633;DHT22;11483;55.828;37.488;2023-08-01T00:11:16;20.80;99.90
22633;DHT22;11483;55.828;37.488;2023-08-01T00:13:42;20.80;99.90
22633;DHT22;11483;55.828;37.488;2023-08-01T00:16:09;20.70;99.90
22633;DHT22;11483;55.828;37.488;2023-08-01T00:18:35;20.70;99.90
22633;DHT22;11483;55.828;37.488;2023-08-01T00:21:02;20.70;99.90
22633;DHT22;11483;55.828;37.488;2023-08-01T00:23:28;20.70;99.90
22633;DHT22;11483;55.828;37.488;2023-08-01T00:25:53;20.70;99.90
22633;DHT22;11483;55.828;37.488;2023-08-01T00:28:21;20.80;99.90
22633;DHT22;11483;55.828;37.488;2023-08-01T00:30:47;20.70;99.90
22633;DHT22;11483;55.828;37.488;2023-08-01T00:33:13;20.70;99.90
22633;DHT22;11483;55.828;37.488;2023-08-01T00:35:40;20.70;99.90
22633;DHT22;11483;55.828;37.488;2023-08-01T00:38:06;20.80;99.90
22633;DHT22;11483;55.828;37.488;2023-08-01T00:40:33;20.80;99.90
22633;DHT22;11483;55.828;37.488;2023-08-01T00:42:59;20.70;99.90
22633;DHT22;11483;55.828;37.488;2023-08-01T00:45:26;20.70;99.90
22633;DHT22;11483;55.828;37.488;2023-08-01T00:47:54;20.60;99.90
22633;DHT22;11483;55.828;37.488;2023-08-01T00:50:20;20.60;99.90
22633;DHT22;11483;55.828;37.488;2023-08-01T00:52:48;20.70;99.90
22633;DHT22;11483;55.828;37.488;2023-08-01T00:55:14;20.80;99.90
22633;DHT22;11483;55.828;37.488;2023-08-01T00:57:41;20.80;99.90
22633;DHT22;11483;55.828;37.488;2023-08-01T01:00:08;20.80;99.90
22633;DHT22;11483;55.828;37.488;2023-08-01T01:02:35;20.80;99.90
22633;DHT22;11483;55.828;37.488;2023-08-01T01:05:02;20.80;99.90
22633;DHT22;11483;55.828;37.488;2023-08-01T01:07:29;20.90;99.90
22633;DHT22;11483;55.828;37.488;2023-08-01T01:09:56;20.90;99.90
22633;DHT22;11483;55.828;37.488;2023-08-01T01:12:22;20.90;99.90
22633;DHT22;11483;55.828;37.488;2023-08-01T01:14:47;20.80;99.90
22633;DHT22;11483;55.828;37.488;2023-08-01T01:17:13;20.80;99.90
22633;DHT22;11483;55.828;37.488;2023-08-01T01:19:39;20.80;99.90
22633;DHT22;11483;55.828;37.488;2023-08-01T01:22:07;20.70;99.90
22633;DHT22;11483;55.828;37.488;2023-08-01T01:24:35;20.70;99.90
22633;DHT22;11483;55.828;37.488;2023-08-01T01:27:02;20.60;99.90
22633;DHT22;11483;55.828;37.488;2023-08-01T01:29:29;20.60;99.90
22633;DHT22;11483;55.828;37.488;2023-08-01T01:31:56;20.50;99.90
22633;DHT22;11483;55.828;37.488;2023-08-01T01:34:23;20.40;99.90
22633;DHT22;11483;55.828;37.488;2023-08-01T01:36:49;20.40;99.90
22633;DHT22;11483;55.828;37.488;2023-08-01T01:39:15;20.30;99.90
22633;DHT22;11483;55.828;37.488;2023-08-01T01:41:40;20.20;99.90
22633;DHT22;11483;55.828;37.488;2023-08-01T01:44:06;20.20;99.90
22633;DHT22;11483;55.828;37.488;2023-08-01T01:46:32;20.10;99.90
22633;DHT22;11483;55.828;37.488;2023-08-01T01:48:58;20.10;99.90
22633;DHT22;11483;55.828;37.488;2023-08-01T01:51:26;20.10;99.90
22633;DHT22;11483;55.828;37.488;2023-08-01T01:53:51;20.00;99.90
22633;DHT22;11483;55.828;37.488;2023-08-01T01:56:17;20.10;99.90
22633;DHT22;11483;55.828;37.488;2023-08-01T01:58:43;20.00;99.90
22633;DHT22;11483;55.828;37.488;2023-08-01T02:01:09;20.00;99.90
22633;DHT22;11483;55.828;37.488;2023-08-01T02:03:35;19.90;99.90
22633;DHT22;11483;55.828;37.488;2023-08-01T02:06:02;19.80;99.90
22633;DHT22;11483;55.828;37.488;2023-08-01T02:08:31;19.80;99.90
22633;DHT22;11483;55.828;37.488;2023-08-01T02:10:57;19.70;99.90
22633;DHT22;11483;55.828;37.488;2023-08-01T02:13:28;19.70;99.90
22633;DHT22;11483;55.828;37.488;2023-08-01T02:15:54;19.80;99.90
22633;DHT22;11483;55.828;37.488;2023-08-01T02:18:20;19.90;99.90
22633;DHT22;11483;55.828;37.488;2023-08-01T02:20:46;20.00;99.90
22633;DHT22;11483;55.828;37.488;2023-08-01T02:23:12;20.20;99.90
22633;DHT22;11483;55.828;37.488;2023-08-01T02:25:39;20.30;99.90
22633;DHT22;11483;55.828;37.488;2023-08-01T02:28:06;20.30;99.90
22633;DHT22;11483;55.828;37.488;2023-08-01T02:30:32;20.40;99.90
22633;DHT22;11483;55.828;37.488;2023-08-01T02:32:58;20.40;99.90
22633;DHT22;11483;55.828;37.488;2023-08-01T02:35:24;20.40;99.90
22633;DHT22;11483;55.828;37.488;2023-08-01T02:37:50;20.40;99.90
22633;DHT22;11483;55.828;37.488;2023-08-01T02:40:15;20.40;99.90
22633;DHT22;11483;55.828;37.488;2023-08-01T02:42:41;20.30;99.90
22633;DHT22;11483;55.828;37.488;2023-08-01T02:45:07;20.30;99.90
22633;DHT22;11483;55.828;37.488;2023-08-01T02:47:33;20.30;99.90
22633;DHT22;11483;55.828;37.488;2023-08-01T02:49:59;20.30;99.90
22633;DHT22;11483;55.828;37.488;2023-08-01T02:52:25;20.40;99.90
22633;DHT22;11483;55.828;37.488;2023-08-01T02:54:51;20.40;99.90
22633;DHT22;11483;55.828;37.488;2023-08-01T02:57:16;20.40;99.90
22633;DHT22;11483;55.828;37.488;2023-08-01T02:59:42;20.50;99.90
22633;DHT22;11483;55.828;37.488;2023-08-01T03:02:08;20.60;99.90
22633;DHT22;11483;55.828;37.488;2023-08-01T03:04:34;20.60;99.90
22633;DHT22;11483;55.828;37.488;2023-08-01T03:07:00;20.60;99.90
22633;DHT22;11483;55.828;37.488;2023-08-01T03:09:26;20.70;99.90
22633;DHT22;11483;55.828;37.488;2023-08-01T03:11:52;20.70;99.90
22633;DHT22;11483;55.828;37.488;2023-08-01T03:14:18;20.70;99.90
22633;DHT22;11483;55.828;37.488;2023-08-01T03:16:43;20.70;99.90
22633;DHT22;11483;55.828;37.488;2023-08-01T03:19:09;20.70;99.90
22633;DHT22;11483;55.828;37.488;2023-08-01T03:21:35;20.80;99.90
22633;DHT22;11483;55.828;37.488;2023-08-01T03:24:02;20.80;99.90
22633;DHT22;11483;55.828;37.488;2023-08-01T03:26:28;20.80;99.90
22633;DHT22;11483;55.828;37.488;2023-08-01T03:28:55;20.80;99.90
22633;DHT22;11483;55.828;37.488;2023-08-01T03:31:22;20.80;99.90
22633;DHT22;11483;55.828;37.488;2023-08-01T03:33:48;20.90;99.90
22633;DHT22;11483;55.828;37.488;2023-08-01T03:36:14;20.90;99.90
22633;DHT22;11483;55.828;37.488;2023-08-01T03:38:40;20.90;99.90
22633;DHT22;11483;55.828;37.488;2023-08-01T03:41:06;21.00;99.90
22633;DHT22;11483;55.828;37.488;2023-08-01T03:43:31;21.00;99.90
22633;DHT22;11483;55.828;37.488;2023-08-01T03:45:57;21.10;99.90
22633;DHT22;11483;55.828;37.488;2023-08-01T03:48:23;21.10;99.90
22633;DHT22;11483;55.828;37.488;2023-08-01T03:50:49;21.20;99.90
22633;DHT22;11483;55.828;37.488;2023-08-01T03:53:15;21.20;99.90
22633;DHT22;11483;55.828;37.488;2023-08-01T03:55:40;21.30;99.90
22633;DHT22;11483;55.828;37.488;2023-08-01T03:58:08;21.30;99.90
22633;DHT22;11483;55.828;37.488;2023-08-01T04:00:33;21.40;99.90
22633;DHT22;11483;55.828;37.488;2023-08-01T04:03:00;21.40;99.90
22633;DHT22;11483;55.828;37.488;2023-08-01T04:05:27;21.40;99.90
22633;DHT22;11483;55.828;37.488;2023-08-01T04:07:53;21.40;99.90
22633;DHT22;11483;55.828;37.488;2023-08-01T04:10:22;21.50;99.90
22633;DHT22;11483;55.828;37.488;2023-08-01T04:12:49;21.50;99.90
22633;DHT22;11483;55.828;37.488;2023-08-01T04:15:15;21.50;99.90
22633;DHT22;11483;55.828;37.488;2023-08-01T04:17:41;21.50;99.90
22633;DHT22;11483;55.828;37.488;2023-08-01T04:20:07;21.50;99.90
22633;DHT22;11483;55.828;37.488;2023-08-01T04:22:33;21.50;99.90
22633;DHT22;11483;55.828;37.488;2023-08-01T04:24:58;21.60;99.90
22633;DHT22;11483;55.828;37.488;2023-08-01T04:27:24;21.70;99.90
22633;DHT22;11483;55.828;37.488;2023-08-01T04:29:51;21.70;99.90
22633;DHT22;11483;55.828;37.488;2023-08-01T04:32:17;21.70;99.90
22633;DHT22;11483;55.828;37.488;2023-08-01T04:34:42;21.70;99.90
22633;DHT22;11483;55.828;37.488;2023-08-01T04:37:08;21.70;99.90
22633;DHT22;11483;55.828;37.488;2023-08-01T04:39:36;21.70;99.90
22633;DHT22;11483;55.828;37.488;2023-08-01T04:42:02;21.80;99.90
22633;DHT22;11483;55.828;37.488;2023-08-01T04:44:28;21.80;99.90
22633;DHT22;11483;55.828;37.488;2023-08-01T04:46:55;21.80;99.90
22633;DHT22;11483;55.828;37.488;2023-08-01T04:49:20;21.80;99.90
22633;DHT22;11483;55.828;37.488;2023-08-01T04:51:48;21.80;99.90
22633;DHT22;11483;55.828;37.488;2023-08-01T04:54:14;21.90;99.90
22633;DHT22;11483;55.828;37.488;2023-08-01T04:56:40;21.90;99.90
22633;DHT22;11483;55.828;37.488;2023-08-01T04:59:06;22.00;99.90
22633;DHT22;11483;55.828;37.488;2023-08-01T05:01:31;22.10;99.90
22633;DHT22;11483;55.828;37.488;2023-08-01T05:03:57;22.20;99.90
22633;DHT22;11483;55.828;37.488;2023-08-01T05:06:23;22.30;99.90
22633;DHT22;11483;55.828;37.488;2023-08-01T05:08:49;22.40;99.90
22633;DHT22;11483;55.828;37.488;2023-08-01T05:11:15;22.50;99.90
22633;DHT22;11483;55.828;37.488;2023-08-01T05:13:41;22.50;99.90
22633;DHT22;11483;55.828;37.488;2023-08-01T05:16:07;22.60;99.90
22633;DHT22;11483;55.828;37.488;2023-08-01T05:18:32;22.60;99.90
22633;DHT22;11483;55.828;37.488;2023-08-01T05:20:58;22.70;99.90
22633;DHT22;11483;55.828;37.488;2023-08-01T05:23:24;22.80;99.90
22633;DHT22;11483;55.828;37.488;2023-08-01T05:25:50;22.80;99.90
22633;DHT22;11483;55.828;37.488;2023-08-01T05:28:16;22.90;99.90
22633;DHT22;11483;55.828;37.488;2023-08-01T05:30:41;23.00;99.90
22633;DHT22;11483;55.828;37.488;2023-08-01T05:33:07;23.00;99.90
22633;DHT22;11483;55.828;37.488;2023-08-01T05:35:33;23.10;99.90
22633;DHT22;11483;55.828;37.488;2023-08-01T05:37:59;23.20;99.90
22633;DHT22;11483;55.828;37.488;2023-08-01T05:40:25;23.30;99.90
22633;DHT22;11483;55.828;37.488;2023-08-01T05:42:51;23.30;99.90
22633;DHT22;11483;55.828;37.488;2023-08-01T05:45:17;23.30;99.90
22633;DHT22;11483;55.828;37.488;2023-08-01T05:47:43;23.40;99.90
22633;DHT22;11483;55.828;37.488;2023-08-01T05:50:09;23.50;99.90
22633;DHT22;11483;55.828;37.488;2023-08-01T05:52:36;23.60;99.90
22633;DHT22;11483;55.828;37.488;2023-08-01T05:55:02;23.60;99.90
22633;DHT22;11483;55.828;37.488;2023-08-01T05:57:29;23.70;99.90
22633;DHT22;11483;55.828;37.488;2023-08-01T05:59:55;23.80;99.90
22633;DHT22;11483;55.828;37.488;2023-08-01T06:02:21;23.90;99.90
22633;DHT22;11483;55.828;37.488;2023-08-01T06:04:47;23.90;99.90
22633;DHT22;11483;55.828;37.488;2023-08-01T06:07:12;24.10;99.90
22633;DHT22;11483;55.828;37.488;2023-08-01T06:09:38;24.10;99.90
22633;DHT22;11483;55.828;37.488;2023-08-01T06:12:04;24.20;99.90
22633;DHT22;11483;55.828;37.488;2023-08-01T06:14:30;24.20;99.90
22633;DHT22;11483;55.828;37.488;2023-08-01T06:16:56;24.20;99.90
22633;DHT22;11483;55.828;37.488;2023-08-01T06:19:22;24.20;99.90
22633;DHT22;11483;55.828;37.488;2023-08-01T06:21:48;24.30;99.90
22633;DHT22;11483;55.828;37.488;2023-08-01T06:24:14;24.30;99.90
22633;DHT22;11483;55.828;37.488;2023-08-01T06:26:40;24.40;99.90
22633;DHT22;11483;55.828;37.488;2023-08-01T06:29:06;24.40;99.90
22633;DHT22;11483;55.828;37.488;2023-08-01T06:31:31;24.40;99.90
22633;DHT22;11483;55.828;37.488;2023-08-01T06:33:57;24.50;99.90
22633;DHT22;11483;55.828;37.488;2023-08-01T06:36:23;24.60;99.90
22633;DHT22;11483;55.828;37.488;2023-08-01T06:38:49;24.60;99.90
22633;DHT22;11483;55.828;37.488;2023-08-01T06:41:15;24.60;99.90
22633;DHT22;11483;55.828;37.488;2023-08-01T06:43:41;24.70;99.90
22633;DHT22;11483;55.828;37.488;2023-08-01T06:46:07;24.80;99.90
22633;DHT22;11483;55.828;37.488;2023-08-01T06:48:32;24.80;99.90
22633;DHT22;11483;55.828;37.488;2023-08-01T06:51:01;24.80;99.90
22633;DHT22;11483;55.828;37.488;2023-08-01T06:53:30;24.80;99.90
22633;DHT22;11483;55.828;37.488;2023-08-01T06:55:56;25.00;99.90
22633;DHT22;11483;55.828;37.488;2023-08-01T06:58:22;25.00;99.90
22633;DHT22;11483;55.828;37.488;2023-08-01T07:00:48;25.00;99.90
22633;DHT22;11483;55.828;37.488;2023-08-01T07:03:13;25.10;99.90
22633;DHT22;11483;55.828;37.488;2023-08-01T07:05:39;25.20;99.90
22633;DHT22;11483;55.828;37.488;2023-08-01T07:08:05;25.20;99.90
22633;DHT22;11483;55.828;37.488;2023-08-01T07:10:34;25.20;99.90
22633;DHT22;11483;55.828;37.488;2023-08-01T07:13:01;25.30;99.90
22633;DHT22;11483;55.828;37.488;2023-08-01T07:15:30;25.30;99.90
22633;DHT22;11483;55.828;37.488;2023-08-01T07:17:55;25.40;99.90
22633;DHT22;11483;55.828;37.488;2023-08-01T07:20:22;25.40;99.90
22633;DHT22;11483;55.828;37.488;2023-08-01T07:22:47;25.50;99.90
22633;DHT22;11483;55.828;37.488;2023-08-01T07:25:13;25.60;99.90
22633;DHT22;11483;55.828;37.488;2023-08-01T07:27:40;25.60;99.90
22633;DHT22;11483;55.828;37.488;2023-08-01T07:30:07;25.60;99.90
22633;DHT22;11483;55.828;37.488;2023-08-01T07:32:33;25.70;99.90
22633;DHT22;11483;55.828;37.488;2023-08-01T07:34:58;25.80;99.90
22633;DHT22;11483;55.828;37.488;2023-08-01T07:37:24;25.90;99.90
22633;DHT22;11483;55.828;37.488;2023-08-01T07:39:50;26.10;99.90
22633;DHT22;11483;55.828;37.488;2023-08-01T07:42:38;26.30;99.90
22633;DHT22;11483;55.828;37.488;2023-08-01T07:45:04;26.70;99.90
22633;DHT22;11483;55.828;37.488;2023-08-01T07:47:30;27.00;99.90
22633;DHT22;11483;55.828;37.488;2023-08-01T07:49:56;27.10;99.90
22633;DHT22;11483;55.828;37.488;2023-08-01T07:52:22;26.90;99.90
22633;DHT22;11483;55.828;37.488;2023-08-01T07:54:47;27.00;99.90
22633;DHT22;11483;55.828;37.488;2023-08-01T07:57:13;26.90;99.90
22633;DHT22;11483;55.828;37.488;2023-08-01T07:59:39;27.00;99.90
22633;DHT22;11483;55.828;37.488;2023-08-01T08:02:05;27.10;99.90
22633;DHT22;11483;55.828;37.488;2023-08-01T08:04:30;27.10;99.90
22633;DHT22;11483;55.828;37.488;2023-08-01T08:06:56;27.10;99.90
22633;DHT22;11483;55.828;37.488;2023-08-01T08:09:25;27.10;99.90
22633;DHT22;11483;55.828;37.488;2023-08-01T08:11:51;27.10;99.90
22633;DHT22;11483;55.828;37.488;2023-08-01T08:14:17;27.10;99.90
22633;DHT22;11483;55.828;37.488;2023-08-01T08:16:43;27.00;99.90
22633;DHT22;11483;55.828;37.488;2023-08-01T08:19:08;27.20;99.90
22633;DHT22;11483;55.828;37.488;2023-08-01T08:21:34;27.20;99.90
22633;DHT22;11483;55.828;37.488;2023-08-01T08:24:00;27.20;99.90
22633;DHT22;11483;55.828;37.488;2023-08-01T08:26:26;27.30;99.90
22633;DHT22;11483;55.828;37.488;2023-08-01T08:28:51;27.40;99.90
22633;DHT22;11483;55.828;37.488;2023-08-01T08:31:17;27.60;99.90
22633;DHT22;11483;55.828;37.488;2023-08-01T08:33:43;27.70;99.90
22633;DHT22;11483;55.828;37.488;2023-08-01T08:36:09;27.70;99.90
22633;DHT22;11483;55.828;37.488;2023-08-01T08:38:34;27.80;99.90
22633;DHT22;11483;55.828;37.488;2023-08-01T08:41:03;27.80;99.90
22633;DHT22;11483;55.828;37.488;2023-08-01T08:43:31;27.80;99.90
22633;DHT22;11483;55.828;37.488;2023-08-01T08:45:57;28.20;99.90
22633;DHT22;11483;55.828;37.488;2023-08-01T08:48:26;28.70;99.90
22633;DHT22;11483;55.828;37.488;2023-08-01T08:50:52;29.70;99.90
22633;DHT22;11483;55.828;37.488;2023-08-01T08:53:20;30.60;98.30
22633;DHT22;11483;55.828;37.488;2023-08-01T08:55:47;31.90;95.40
22633;DHT22;11483;55.828;37.488;2023-08-01T08:58:14;33.60;92.90
22633;DHT22;11483;55.828;37.488;2023-08-01T09:00:40;35.30;89.20
22633;DHT22;11483;55.828;37.488;2023-08-01T09:03:06;36.40;81.20
22633;DHT22;11483;55.828;37.488;2023-08-01T09:05:44;37.10;78.60
22633;DHT22;11483;55.828;37.488;2023-08-01T09:08:19;37.70;72.70
22633;DHT22;11483;55.828;37.488;2023-08-01T09:10:46;36.80;71.00
22633;DHT22;11483;55.828;37.488;2023-08-01T09:13:12;36.00;70.80
22633;DHT22;11483;55.828;37.488;2023-08-01T09:15:39;35.90;72.70
22633;DHT22;11483;55.828;37.488;2023-08-01T09:18:07;36.20;68.30
22633;DHT22;11483;55.828;37.488;2023-08-01T09:20:47;34.20;69.90
22633;DHT22;11483;55.828;37.488;2023-08-01T09:23:14;32.60;72.50
22633;DHT22;11483;55.828;37.488;2023-08-01T09:25:41;32.00;75.70
22633;DHT22;11483;55.828;37.488;2023-08-01T09:28:21;34.00;75.80
22633;DHT22;11483;55.828;37.488;2023-08-01T09:30:52;34.90;70.60
22633;DHT22;11483;55.828;37.488;2023-08-01T09:33:20;33.50;71.50
22633;DHT22;11483;55.828;37.488;2023-08-01T09:35:45;33.70;72.90
22633;DHT22;11483;55.828;37.488;2023-08-01T09:38:15;35.30;73.80
22633;DHT22;11483;55.828;37.488;2023-08-01T09:40:42;37.40;70.30
22633;DHT22;11483;55.828;37.488;2023-08-01T09:43:09;39.50;65.70
22633;DHT22;11483;55.828;37.488;2023-08-01T09:45:34;40.70;62.10
22633;DHT22;11483;55.828;37.488;2023-08-01T09:48:00;41.20;60.20
22633;DHT22;11483;55.828;37.488;2023-08-01T09:50:26;41.80;57.70
22633;DHT22;11483;55.828;37.488;2023-08-01T09:52:52;41.70;56.50
22633;DHT22;11483;55.828;37.488;2023-08-01T09:55:30;41.20;56.70
22633;DHT22;11483;55.828;37.488;2023-08-01T09:57:57;41.00;56.70
22633;DHT22;11483;55.828;37.488;2023-08-01T10:00:24;41.70;55.80
22633;DHT22;11483;55.828;37.488;2023-08-01T10:02:51;43.10;56.00
22633;DHT22;11483;55.828;37.488;2023-08-01T10:05:19;43.80;54.70
22633;DHT22;11483;55.828;37.488;2023-08-01T10:07:49;43.40;53.30
22633;DHT22;11483;55.828;37.488;2023-08-01T10:10:17;43.70;53.50
22633;DHT22;11483;55.828;37.488;2023-08-01T10:12:46;44.40;52.00
22633;DHT22;11483;55.828;37.488;2023-08-01T10:15:15;45.80;50.00
22633;DHT22;11483;55.828;37.488;2023-08-01T10:17:42;44.10;48.30
22633;DHT22;11483;55.828;37.488;2023-08-01T10:20:08;40.90;50.10
22633;DHT22;11483;55.828;37.488;2023-08-01T10:22:34;38.50;52.80
22633;DHT22;11483;55.828;37.488;2023-08-01T10:25:01;37.90;55.00
22633;DHT22;11483;55.828;37.488;2023-08-01T10:27:28;37.50;56.20
22633;DHT22;11483;55.828;37.488;2023-08-01T10:30:02;38.80;56.00
22633;DHT22;11483;55.828;37.488;2023-08-01T10:32:34;40.70;55.50
22633;DHT22;11483;55.828;37.488;2023-08-01T10:35:01;42.40;53.90
22633;DHT22;11483;55.828;37.488;2023-08-01T10:37:45;43.20;51.70
22633;DHT22;11483;55.828;37.488;2023-08-01T10:40:13;43.40;51.30
22633;DHT22;11483;55.828;37.488;2023-08-01T10:42:41;43.20;50.50
22633;DHT22;11483;55.828;37.488;2023-08-01T10:45:18;42.30;50.50
22633;DHT22;11483;55.828;37.488;2023-08-01T10:47:45;40.80;52.30
22633;DHT22;11483;55.828;37.488;2023-08-01T10:50:15;40.10;53.50
22633;DHT22;11483;55.828;37.488;2023-08-01T10:52:41;39.80;53.30
22633;DHT22;11483;55.828;37.488;2023-08-01T10:55:08;39.70;53.40
22633;DHT22;11483;55.828;37.488;2023-08-01T10:57:39;39.80;53.40
22633;DHT22;11483;55.828;37.488;2023-08-01T11:00:16;38.40;53.60
22633;DHT22;11483;55.828;37.488;2023-08-01T11:02:51;36.40;55.80
22633;DHT22;11483;55.828;37.488;2023-08-01T11:05:18;35.00;57.90
22633;DHT22;11483;55.828;37.488;2023-08-01T11:07:56;33.90;59.30
22633;DHT22;11483;55.828;37.488;2023-08-01T11:10:27;34.10;60.60
22633;DHT22;11483;55.828;37.488;2023-08-01T11:12:53;35.40;60.20
22633;DHT22;11483;55.828;37.488;2023-08-01T11:15:19;36.80;58.50
22633;DHT22;11483;55.828;37.488;2023-08-01T11:17:50;38.10;57.20
22633;DHT22;11483;55.828;37.488;2023-08-01T11:20:17;39.60;55.90
22633;DHT22;11483;55.828;37.488;2023-08-01T11:22:55;40.90;55.50
22633;DHT22;11483;55.828;37.488;2023-08-01T11:28:14;40.90;52.40
22633;DHT22;11483;55.828;37.488;2023-08-01T11:30:40;40.80;52.60
22633;DHT22;11483;55.828;37.488;2023-08-01T11:33:21;41.30;52.90
22633;DHT22;11483;55.828;37.488;2023-08-01T11:35:51;41.90;51.90
22633;DHT22;11483;55.828;37.488;2023-08-01T11:38:20;41.90;51.50
22633;DHT22;11483;55.828;37.488;2023-08-01T11:40:47;41.40;51.80
22633;DHT22;11483;55.828;37.488;2023-08-01T11:43:15;41.20;51.80
22633;DHT22;11483;55.828;37.488;2023-08-01T11:45:52;41.20;52.40
22633;DHT22;11483;55.828;37.488;2023-08-01T11:48:21;40.90;51.70
22633;DHT22;11483;55.828;37.488;2023-08-01T11:50:47;40.20;52.50
22633;DHT22;11483;55.828;37.488;2023-08-01T11:53:20;39.20;53.30
22633;DHT22;11483;55.828;37.488;2023-08-01T11:55:47;39.00;54.00
22633;DHT22;11483;55.828;37.488;2023-08-01T11:58:14;39.00;53.80
22633;DHT22;11483;55.828;37.488;2023-08-01T12:00:41;38.80;53.50
22633;DHT22;11483;55.828;37.488;2023-08-01T12:03:08;38.30;53.90
22633;DHT22;11483;55.828;37.488;2023-08-01T12:05:40;37.70;54.00
22633;DHT22;11483;55.828;37.488;2023-08-01T12:08:14;36.50;55.10
22633;DHT22;11483;55.828;37.488;2023-08-01T12:10:41;35.30;56.20
22633;DHT22;11483;55.828;37.488;2023-08-01T12:13:22;34.40;57.60
22633;DHT22;11483;55.828;37.488;2023-08-01T12:15:49;34.20;58.40
22633;DHT22;11483;55.828;37.488;2023-08-01T12:18:28;34.10;58.40
22633;DHT22;11483;55.828;37.488;2023-08-01T12:20:55;33.90;58.90
22633;DHT22;11483;55.828;37.488;2023-08-01T12:23:21;33.60;59.50
22633;DHT22;11483;55.828;37.488;2023-08-01T12:25:48;33.80;59.90
22633;DHT22;11483;55.828;37.488;2023-08-01T12:28:14;35.10;59.90
22633;DHT22;11483;55.828;37.488;2023-08-01T12:30:41;36.10;58.70
22633;DHT22;11483;55.828;37.488;2023-08-01T12:33:08;36.10;57.80
22633;DHT22;11483;55.828;37.488;2023-08-01T12:35:34;36.50;57.70
22633;DHT22;11483;55.828;37.488;2023-08-01T12:38:00;37.10;56.00
22633;DHT22;11483;55.828;37.488;2023-08-01T12:40:26;37.30;55.90
22633;DHT22;11483;55.828;37.488;2023-08-01T12:42:52;37.30;56.80
22633;DHT22;11483;55.828;37.488;2023-08-01T12:45:18;37.90;56.10
22633;DHT22;11483;55.828;37.488;2023-08-01T12:47:44;38.60;54.90
22633;DHT22;11483;55.828;37.488;2023-08-01T12:50:10;39.30;54.30
22633;DHT22;11483;55.828;37.488;2023-08-01T12:52:36;39.80;53.70
22633;DHT22;11483;55.828;37.488;2023-08-01T12:55:01;40.20;52.90
22633;DHT22;11483;55.828;37.488;2023-08-01T12:57:27;40.90;51.70
22633;DHT22;11483;55.828;37.488;2023-08-01T12:59:53;40.80;51.60
22633;DHT22;11483;55.828;37.488;2023-08-01T13:02:19;40.80;51.00
22633;DHT22;11483;55.828;37.488;2023-08-01T13:04:45;40.40;50.40
22633;DHT22;11483;55.828;37.488;2023-08-01T13:07:11;39.90;50.90
22633;DHT22;11483;55.828;37.488;2023-08-01T13:09:37;39.40;51.10
22633;DHT22;11483;55.828;37.488;2023-08-01T13:12:03;39.00;51.70
22633;DHT22;11483;55.828;37.488;2023-08-01T13:14:29;38.50;52.50
22633;DHT22;11483;55.828;37.488;2023-08-01T13:16:54;38.40;52.90
22633;DHT22;11483;55.828;37.488;2023-08-01T13:19:20;38.40;52.60
22633;DHT22;11483;55.828;37.488;2023-08-01T13:21:46;37.90;51.40
22633;DHT22;11483;55.828;37.488;2023-08-01T13:24:12;37.20;53.20
22633;DHT22;11483;55.828;37.488;2023-08-01T13:26:38;36.50;54.70
22633;DHT22;11483;55.828;37.488;2023-08-01T13:29:04;35.80;55.10
22633;DHT22;11483;55.828;37.488;2023-08-01T13:31:30;35.00;56.40
22633;DHT22;11483;55.828;37.488;2023-08-01T13:33:56;34.80;56.90
22633;DHT22;11483;55.828;37.488;2023-08-01T13:36:22;34.80;57.40
22633;DHT22;11483;55.828;37.488;2023-08-01T13:38:49;35.40;57.50
22633;DHT22;11483;55.828;37.488;2023-08-01T13:41:15;35.90;56.60
22633;DHT22;11483;55.828;37.488;2023-08-01T13:43:41;36.30;56.20
22633;DHT22;11483;55.828;37.488;2023-08-01T13:46:16;36.40;55.90
22633;DHT22;11483;55.828;37.488;2023-08-01T13:48:43;36.30;55.70
22633;DHT22;11483;55.828;37.488;2023-08-01T13:51:09;36.30;56.30
22633;DHT22;11483;55.828;37.488;2023-08-01T13:53:36;36.30;56.10
22633;DHT22;11483;55.828;37.488;2023-08-01T13:56:10;36.20;56.70
22633;DHT22;11483;55.828;37.488;2023-08-01T13:58:38;36.60;56.50
22633;DHT22;11483;55.828;37.488;2023-08-01T14:01:06;37.30;55.90
22633;DHT22;11483;55.828;37.488;2023-08-01T14:03:38;37.40;55.50
22633;DHT22;11483;55.828;37.488;2023-08-01T14:06:06;37.20;55.60
22633;DHT22;11483;55.828;37.488;2023-08-01T14:08:33;37.00;56.70
22633;DHT22;11483;55.828;37.488;2023-08-01T14:10:59;36.90;55.90
22633;DHT22;11483;55.828;37.488;2023-08-01T14:13:25;36.70;55.80
22633;DHT22;11483;55.828;37.488;2023-08-01T14:15:51;36.60;56.30
22633;DHT22;11483;55.828;37.488;2023-08-01T14:18:17;36.60;55.60
22633;DHT22;11483;55.828;37.488;2023-08-01T14:20:43;36.40;56.30
22633;DHT22;11483;55.828;37.488;2023-08-01T14:23:09;36.60;56.40
22633;DHT22;11483;55.828;37.488;2023-08-01T14:25:34;36.40;56.20
22633;DHT22;11483;55.828;37.488;2023-08-01T14:28:01;36.50;56.40
22633;DHT22;11483;55.828;37.488;2023-08-01T14:30:27;36.70;55.70
22633;DHT22;11483;55.828;37.488;2023-08-01T14:33:04;36.80;56.40
22633;DHT22;11483;55.828;37.488;2023-08-01T14:35:32;37.20;55.60
22633;DHT22;11483;55.828;37.488;2023-08-01T14:38:00;37.40;56.20
22633;DHT22;11483;55.828;37.488;2023-08-01T14:40:26;37.40;55.40
22633;DHT22;11483;55.828;37.488;2023-08-01T14:42:52;37.30;55.20
22633;DHT22;11483;55.828;37.488;2023-08-01T14:45:18;36.50;55.90
22633;DHT22;11483;55.828;37.488;2023-08-01T14:47:45;36.20;56.80
22633;DHT22;11483;55.828;37.488;2023-08-01T14:50:11;36.20;56.70
22633;DHT22;11483;55.828;37.488;2023-08-01T14:52:38;36.20;56.70
22633;DHT22;11483;55.828;37.488;2023-08-01T14:55:04;36.00;57.00
22633;DHT22;11483;55.828;37.488;2023-08-01T14:57:30;36.10;57.10
22633;DHT22;11483;55.828;37.488;2023-08-01T14:59:56;36.10;56.70
22633;DHT22;11483;55.828;37.488;2023-08-01T15:02:22;35.40;57.60
22633;DHT22;11483;55.828;37.488;2023-08-01T15:04:52;35.60;58.10
22633;DHT22;11483;55.828;37.488;2023-08-01T15:07:18;35.50;58.20
22633;DHT22;11483;55.828;37.488;2023-08-01T15:09:45;35.30;58.60
22633;DHT22;11483;55.828;37.488;2023-08-01T15:12:11;35.40;58.50
22633;DHT22;11483;55.828;37.488;2023-08-01T15:14:37;35.70;58.90
22633;DHT22;11483;55.828;37.488;2023-08-01T15:17:04;36.10;57.90